Time;durP1;ratioP1;P1;durP2;ratioP2;P2;SDS_P1;SDS_P2;PMS_P1;PMS_P2;Temp;Humidity;BMP_temperature;BMP_pressure;BME280_temperature;BME280_humidity;BME280_pressure;Samples;Min_cycle;Max_cycle;Signal;HPM_P1;HPM_P2
2021/08/07 00:01:48;;;;;;;;;0.75;0.75;;;;;19.34;54.62;99800.13;4989252;28;45825;-84
2021/08/07 00:04:13;;;;;;;;;0.25;0.00;;;;;19.36;54.86;99811.41;4974222;28;45586;-83
2021/08/07 00:06:39;;;;;;;;;0.25;0.25;;;;;19.41;54.30;99815.16;4973006;28;47546;-83
2021/08/07 00:09:04;;;;;;;;;1.00;0.75;;;;;19.27;54.46;99803.53;4972976;28;47132;-84
2021/08/07 00:14:51;;;;;;;;;0.00;0.00;;;;;19.37;54.91;99810.41;4974470;28;45607;-84
2021/08/07 00:17:17;;;;;;;;;1.75;1.00;;;;;19.44;54.78;99824.56;4973904;28;45647;-84
2021/08/07 00:19:42;;;;;;;;;1.50;0.00;;;;;19.34;54.98;99811.59;4975154;28;46404;-84
2021/08/07 00:22:07;;;;;;;;;2.00;0.00;;;;;19.11;54.83;99773.72;4990909;28;45714;-84
2021/08/07 00:24:33;;;;;;;;;1.00;1.00;;;;;19.21;54.86;99784.88;4990621;28;45653;-84
2021/08/07 00:26:58;;;;;;;;;0.75;0.75;;;;;19.22;55.05;99797.13;4976966;28;46259;-83
2021/08/07 00:29:24;;;;;;;;;0.00;0.00;;;;;19.11;54.81;99787.78;4979270;28;45733;-84
2021/08/07 00:31:49;;;;;;;;;1.50;0.50;;;;;19.34;54.88;99818.72;4979169;28;45989;-83
2021/08/07 00:34:14;;;;;;;;;1.00;0.00;;;;;19.20;55.43;99801.81;4978964;28;45914;-84
2021/08/07 00:36:40;;;;;;;;;1.00;1.00;;;;;19.09;55.24;99784.50;4979593;28;46569;-84
2021/08/07 00:39:06;;;;;;;;;1.75;1.00;;;;;18.89;55.38;99750.72;4982747;28;46474;-84
2021/08/07 00:44:53;;;;;;;;;3.25;1.00;;;;;19.11;55.68;99790.44;4981608;28;45671;-84
2021/08/07 00:47:19;;;;;;;;;1.75;1.00;;;;;19.08;55.77;99787.34;4978962;28;45543;-84
2021/08/07 00:49:44;;;;;;;;;1.25;1.00;;;;;19.14;55.38;99800.72;4973966;28;46037;-84
2021/08/07 00:52:10;;;;;;;;;2.00;1.00;;;;;19.16;55.40;99808.50;4972300;28;45683;-83
2021/08/07 00:54:39;;;;;;;;;0.50;0.50;;;;;18.95;55.92;99784.50;4988693;28;45789;-83
2021/08/07 00:57:04;;;;;;;;;0.50;0.00;;;;;19.06;55.91;99806.09;4971998;28;47532;-84
2021/08/07 00:59:30;;;;;;;;;0.75;0.25;;;;;19.01;55.60;99805.81;4971481;28;48294;-84
2021/08/07 01:02:11;;;;;;;;;1.00;1.00;;;;;18.89;55.81;99774.63;4972037;28;45651;-84
2021/08/07 01:04:58;;;;;;;;;0.75;0.00;;;;;19.06;55.74;99802.63;4971929;28;45931;-83
2021/08/07 01:07:40;;;;;;;;;1.25;0.50;;;;;19.05;55.87;99801.81;4973428;28;45802;-85
2021/08/07 01:10:17;;;;;;;;;0.50;0.50;;;;;18.91;55.74;99776.06;4973841;28;46209;-85
2021/08/07 01:13:05;;;;;;;;;2.50;1.00;;;;;19.02;56.15;99791.53;4974039;28;45699;-85
2021/08/07 01:15:33;;;;;;;;;0.00;0.00;;;;;18.99;56.23;99786.63;4973802;28;45749;-84
2021/08/07 01:18:01;;;;;;;;;0.00;0.00;;;;;19.01;55.89;99787.22;4973777;28;48302;-85
2021/08/07 01:20:34;;;;;;;;;0.00;0.00;;;;;18.91;55.88;99776.06;4973348;28;45901;-84
2021/08/07 01:23:14;;;;;;;;;0.50;0.50;;;;;18.97;56.07;99782.47;4973782;28;45691;-84
2021/08/07 01:25:50;;;;;;;;;0.25;0.25;;;;;18.95;56.30;99795.13;4973831;28;45587;-85
2021/08/07 01:28:17;;;;;;;;;0.00;0.00;;;;;18.93;56.46;99789.16;4974154;28;45760;-86
2021/08/07 01:30:44;;;;;;;;;1.00;1.00;;;;;18.87;55.83;99788.06;4976545;28;45658;-85
2021/08/07 01:33:10;;;;;;;;;0.25;0.00;;;;;18.76;56.00;99772.59;4976998;28;46005;-85
2021/08/07 01:35:36;;;;;;;;;1.00;1.00;;;;;18.50;56.64;99727.06;4975283;28;46104;-85
2021/08/07 01:38:02;;;;;;;;;1.00;1.00;;;;;18.74;56.30;99774.59;4976492;28;46898;-85
2021/08/07 01:40:27;;;;;;;;;1.00;1.00;;;;;18.57;55.99;99743.94;4974867;28;48031;-85
2021/08/07 01:42:52;;;;;;;;;1.00;1.00;;;;;18.68;56.04;99772.66;4991084;28;45647;-85
2021/08/07 01:45:18;;;;;;;;;0.50;0.00;;;;;18.70;56.52;99765.34;4975424;28;45707;-84
2021/08/07 01:47:58;;;;;;;;;1.00;0.75;;;;;18.54;56.59;99747.78;4975097;28;47341;-84
2021/08/07 01:50:45;;;;;;;;;1.00;1.00;;;;;18.75;56.70;99784.22;4976560;28;46711;-84
2021/08/07 01:53:16;;;;;;;;;2.00;1.00;;;;;18.48;55.98;99745.81;4977111;28;45722;-85
2021/08/07 01:56:16;;;;;;;;;1.25;1.00;;;;;18.69;56.34;99776.97;4975393;28;45688;-84
2021/08/07 01:58:45;;;;;;;;;1.75;1.00;;;;;18.50;56.65;99742.97;4975066;28;47356;-84
2021/08/07 02:01:14;;;;;;;;;1.00;1.00;;;;;18.61;56.16;99759.31;4976447;28;45563;-85
2021/08/07 02:03:40;;;;;;;;;0.25;0.25;;;;;18.44;56.40;99742.72;4974928;28;45971;-84
2021/08/07 02:06:07;;;;;;;;;1.00;0.75;;;;;18.61;56.41;99761.97;4977085;28;45817;-84
2021/08/07 02:08:38;;;;;;;;;1.25;1.00;;;;;18.50;56.42;99746.47;4976732;28;45701;-84
2021/08/07 02:11:04;;;;;;;;;0.00;0.00;;;;;18.51;56.63;99749.94;4978581;28;45962;-84
2021/08/07 02:13:30;;;;;;;;;2.50;1.00;;;;;18.19;56.83;99704.13;4979276;28;45745;-85
2021/08/07 02:15:56;;;;;;;;;1.00;1.00;;;;;18.40;56.37;99737.94;4979015;28;45800;-85
2021/08/07 02:18:25;;;;;;;;;1.00;1.00;;;;;18.24;57.27;99714.22;4979614;28;46501;-84
2021/08/07 02:20:53;;;;;;;;;1.75;0.75;;;;;18.51;57.10;99756.06;4979712;28;45517;-84
2021/08/07 02:23:18;;;;;;;;;1.00;0.50;;;;;18.25;56.54;99718.50;4981441;28;45722;-84
2021/08/07 02:25:51;;;;;;;;;1.00;0.25;;;;;18.34;56.84;99739.50;4983522;28;45671;-84
2021/08/07 02:28:18;;;;;;;;;2.75;1.00;;;;;18.18;56.85;99718.44;4983478;28;45707;-84
2021/08/07 02:30:45;;;;;;;;;2.75;2.00;;;;;18.18;56.79;99720.25;4985763;28;45895;-84
2021/08/07 02:33:10;;;;;;;;;1.00;1.00;;;;;18.35;56.97;99735.81;4982534;28;45730;-84
2021/08/07 02:35:37;;;;;;;;;3.00;1.00;;;;;18.42;57.18;99738.56;4976730;28;45628;-84
2021/08/07 02:38:04;;;;;;;;;1.75;1.25;;;;;18.41;56.68;99736.91;4978213;28;46715;-84
2021/08/07 02:40:30;;;;;;;;;0.50;0.50;;;;;18.39;56.89;99737.13;4976296;28;46074;-84
2021/08/07 02:42:57;;;;;;;;;4.50;1.00;;;;;18.39;56.95;99737.13;4978226;28;45604;-83
2021/08/07 02:45:23;;;;;;;;;1.00;1.00;;;;;18.19;56.80;99706.78;4979663;28;45669;-84
2021/08/07 02:47:50;;;;;;;;;2.00;1.50;;;;;18.26;56.83;99712.22;4978506;28;47739;-83
2021/08/07 02:50:17;;;;;;;;;1.00;1.00;;;;;18.05;57.16;99673.13;4978193;28;47213;-83
2021/08/07 02:52:45;;;;;;;;;1.25;0.00;;;;;18.20;57.26;99697.84;4979395;28;45591;-84
2021/08/07 02:55:11;;;;;;;;;0.75;0.75;;;;;18.18;57.28;99686.59;4981121;28;45599;-85
2021/08/07 03:00:58;;;;;;;;;0.00;0.00;;;;;18.35;56.95;99703.97;4983078;28;45665;-83
2021/08/07 03:03:23;;;;;;;;;1.00;1.00;;;;;18.49;57.30;99720.94;4999431;28;46169;-83
2021/08/07 03:05:49;;;;;;;;;2.00;1.00;;;;;18.22;57.23;99671.97;4983992;28;45722;-84
2021/08/07 03:08:14;;;;;;;;;1.00;1.00;;;;;18.44;56.95;99708.22;4996419;28;45446;-83
2021/08/07 03:10:41;;;;;;;;;0.75;0.25;;;;;18.52;57.34;99714.44;5018476;28;47058;-84
2021/08/07 03:13:06;;;;;;;;;1.50;1.50;;;;;18.53;57.02;99711.59;5001781;28;45075;-85
2021/08/07 03:15:32;;;;;;;;;1.50;1.00;;;;;18.42;57.19;99693.47;4998690;28;45221;-84
2021/08/07 03:17:57;;;;;;;;;1.75;1.00;;;;;18.35;57.02;99677.47;4998163;28;45489;-84
2021/08/07 03:20:30;;;;;;;;;1.00;1.00;;;;;18.50;57.10;99687.28;4998464;28;45438;-85
2021/08/07 03:23:01;;;;;;;;;1.00;1.00;;;;;18.58;57.23;99695.16;5000388;28;45114;-83
2021/08/07 03:25:27;;;;;;;;;2.00;2.00;;;;;18.37;57.04;99670.16;4995937;28;45836;-84
2021/08/07 03:31:14;;;;;;;;;1.00;1.00;;;;;18.43;57.24;99665.97;4975718;28;45996;-81
2021/08/07 03:33:39;;;;;;;;;1.00;1.00;;;;;18.63;57.14;99701.56;4981366;28;45767;-82
2021/08/07 03:36:05;;;;;;;;;2.25;1.00;;;;;18.60;57.24;99678.06;4980698;28;45734;-82
2021/08/07 03:38:31;;;;;;;;;2.00;1.00;;;;;18.66;57.27;99685.31;4994501;28;46525;-80
2021/08/07 03:40:56;;;;;;;;;1.25;1.00;;;;;18.68;57.57;99688.56;4979917;28;45698;-80
2021/08/07 03:43:22;;;;;;;;;2.00;1.00;;;;;18.69;57.90;99689.41;4979784;28;45777;-80
2021/08/07 03:45:47;;;;;;;;;1.00;0.00;;;;;18.69;57.49;99684.91;4979469;28;45939;-80
2021/08/07 03:48:13;;;;;;;;;1.75;1.00;;;;;18.70;57.33;99677.78;4975343;28;45718;-81
2021/08/07 03:50:38;;;;;;;;;1.50;1.25;;;;;18.70;57.88;99683.91;4980805;28;46549;-79
2021/08/07 03:53:24;;;;;;;;;1.50;1.00;;;;;18.63;57.66;99666.25;4977786;28;45706;-81
2021/08/07 03:55:50;;;;;;;;;3.00;2.00;;;;;18.23;57.42;99593.25;4980470;28;46092;-83
2021/08/07 04:02:05;;;;;;;;;1.00;1.00;;;;;18.63;57.82;99653.81;4979059;28;45718;-81
2021/08/07 04:04:30;;;;;;;;;2.00;1.00;;;;;18.72;57.38;99675.78;4984055;28;45757;-80
2021/08/07 04:06:56;;;;;;;;;2.50;2.00;;;;;18.43;57.89;99627.00;4986256;28;45623;-82
2021/08/07 04:09:21;;;;;;;;;2.00;1.00;;;;;18.71;58.12;99671.47;4986531;28;45662;-82
2021/08/07 04:11:47;;;;;;;;;8.75;7.00;;;;;18.67;58.12;99665.72;4981626;28;45659;-81
2021/08/07 04:14:12;;;;;;;;;3.50;2.00;;;;;18.71;57.80;99672.31;4984139;28;45626;-81
2021/08/07 04:16:38;;;;;;;;;3.75;2.50;;;;;18.71;58.02;99669.66;4980038;28;45853;-80
2021/08/07 04:19:04;;;;;;;;;2.00;2.00;;;;;18.63;58.11;99661.78;4981922;28;45751;-80
2021/08/07 04:21:29;;;;;;;;;1.75;1.25;;;;;18.61;57.91;99665.63;4987004;28;45933;-80
2021/08/07 04:23:55;;;;;;;;;2.00;2.00;;;;;18.68;58.09;99677.13;4984613;28;45690;-82
2021/08/07 04:26:20;;;;;;;;;11.00;8.50;;;;;18.62;58.15;99669.94;4999189;28;46007;-82
2021/08/07 04:28:45;;;;;;;;;2.75;2.50;;;;;18.55;58.26;99655.75;4983602;28;46722;-81
2021/08/07 04:31:11;;;;;;;;;2.50;1.00;;;;;18.65;58.37;99672.22;4978650;28;45596;-81
2021/08/07 04:33:36;;;;;;;;;3.25;1.75;;;;;18.37;58.30;99625.06;4974889;28;45643;-81
2021/08/07 04:36:04;;;;;;;;;1.00;1.00;;;;;18.47;58.34;99646.00;4975526;28;45637;-81
2021/08/07 04:38:31;;;;;;;;;1.25;1.00;;;;;18.63;58.13;99675.03;4975541;28;46588;-80
2021/08/07 04:40:57;;;;;;;;;2.00;2.00;;;;;18.61;58.06;99658.50;4974622;28;45704;-82
2021/08/07 04:46:44;;;;;;;;;2.00;1.00;;;;;18.57;58.73;99659.84;4975007;28;45575;-80
2021/08/07 04:49:09;;;;;;;;;3.00;2.75;;;;;18.53;58.09;99657.72;4974822;28;45535;-81
2021/08/07 04:51:34;;;;;;;;;3.00;1.25;;;;;18.54;58.82;99654.91;4974267;28;45688;-80
2021/08/07 04:54:00;;;;;;;;;2.75;2.00;;;;;18.54;58.53;99659.38;4974462;28;45710;-83
2021/08/07 04:56:25;;;;;;;;;2.00;2.00;;;;;18.53;58.33;99660.38;4973513;28;45579;-80
2021/08/07 04:58:50;;;;;;;;;1.50;1.00;;;;;18.46;58.94;99645.19;4974701;28;45694;-80
2021/08/07 05:01:16;;;;;;;;;3.00;2.00;;;;;18.45;58.62;99643.56;4974032;28;46064;-80
2021/08/07 05:03:41;;;;;;;;;3.50;1.75;;;;;18.44;58.86;99643.72;4976020;28;45899;-79
2021/08/07 05:06:07;;;;;;;;;3.25;2.00;;;;;18.45;58.78;99638.25;4977553;28;45676;-79
2021/08/07 05:08:35;;;;;;;;;1.75;1.75;;;;;18.25;58.53;99607.97;4977365;28;45960;-79
2021/08/07 05:11:01;;;;;;;;;3.00;2.00;;;;;18.44;58.98;99644.56;4977294;28;45742;-82
2021/08/07 05:16:48;;;;;;;;;2.00;2.00;;;;;18.41;59.18;99634.31;4977204;28;45569;-82
2021/08/07 05:19:13;;;;;;;;;2.75;2.75;;;;;18.41;58.87;99628.16;4977683;28;46578;-83
2021/08/07 05:21:39;;;;;;;;;1.75;1.75;;;;;18.19;59.02;99592.78;4977384;28;45707;-81
2021/08/07 05:24:04;;;;;;;;;1.00;1.00;;;;;18.42;58.97;99635.94;4975886;28;45732;-80
2021/08/07 05:26:30;;;;;;;;;1.75;1.75;;;;;18.42;59.00;99627.16;4982584;28;45587;-82
2021/08/07 05:28:55;;;;;;;;;3.50;2.00;;;;;18.32;58.98;99603.59;4986710;28;46630;-80
2021/08/07 05:31:20;;;;;;;;;2.25;1.50;;;;;18.37;59.49;99618.94;4985015;28;45788;-83
2021/08/07 05:33:46;;;;;;;;;3.25;2.00;;;;;18.38;59.01;99612.63;4980350;28;45700;-85
2021/08/07 05:36:11;;;;;;;;;2.25;2.00;;;;;18.33;59.01;99605.22;4978676;28;45762;-86
2021/08/07 05:38:37;;;;;;;;;3.00;2.00;;;;;18.40;59.53;99619.41;4981855;28;45877;-83
2021/08/07 05:41:02;;;;;;;;;1.00;1.00;;;;;18.25;59.13;99589.41;4977951;28;46315;-85
2021/08/07 05:46:49;;;;;;;;;3.00;3.00;;;;;18.31;59.65;99598.44;4976511;28;45768;-81
2021/08/07 05:49:14;;;;;;;;;3.50;3.50;;;;;18.31;59.50;99607.22;4976590;28;46871;-82
2021/08/07 05:51:40;;;;;;;;;5.00;3.00;;;;;18.36;59.45;99611.97;4976508;28;45635;-81
2021/08/07 05:54:05;;;;;;;;;7.25;5.00;;;;;18.33;59.95;99613.19;4976214;28;45680;-80
2021/08/07 05:56:31;;;;;;;;;2.75;1.00;;;;;18.33;59.54;99610.53;4976359;28;45651;-81
2021/08/07 06:02:18;;;;;;;;;3.00;2.25;;;;;18.37;60.20;99606.50;4975824;28;45981;-81
2021/08/07 06:04:44;;;;;;;;;2.75;1.75;;;;;18.37;59.66;99606.50;4975897;28;45702;-80
2021/08/07 06:07:09;;;;;;;;;3.00;3.00;;;;;18.22;60.38;99592.44;4976162;28;45840;-78
2021/08/07 06:09:35;;;;;;;;;3.00;3.00;;;;;18.36;60.34;99610.16;4976799;28;46491;-78
2021/08/07 06:12:00;;;;;;;;;2.00;2.00;;;;;18.19;60.30;99582.16;4978694;28;45870;-81
2021/08/07 06:14:25;;;;;;;;;4.50;3.00;;;;;18.33;59.99;99605.22;4980217;28;45854;-82
2021/08/07 06:16:51;;;;;;;;;1.50;1.50;;;;;18.40;60.29;99622.06;4980168;28;45523;-81
2021/08/07 06:19:17;;;;;;;;;2.00;1.00;;;;;18.41;60.04;99623.69;4978367;28;45572;-80
2021/08/07 06:21:42;;;;;;;;;2.75;2.00;;;;;18.29;60.60;99596.00;4976979;28;48115;-81
2021/08/07 06:24:08;;;;;;;;;1.75;1.00;;;;;18.43;60.13;99620.88;4977615;28;45950;-80
2021/08/07 06:26:33;;;;;;;;;2.00;1.75;;;;;18.42;60.31;99614.72;4984297;28;45781;-80
2021/08/07 06:32:20;;;;;;;;;4.25;3.00;;;;;18.33;60.67;99602.59;4984125;28;45825;-81
2021/08/07 06:34:46;;;;;;;;;2.25;2.00;;;;;18.43;60.58;99612.91;4981978;28;45907;-81
2021/08/07 06:37:11;;;;;;;;;17.00;15.00;;;;;18.41;60.25;99599.81;4983028;28;45632;-81
2021/08/07 06:39:36;;;;;;;;;8.00;7.50;;;;;18.46;60.20;99605.41;4978371;28;45586;-80
2021/08/07 06:42:02;;;;;;;;;3.00;2.00;;;;;18.48;60.41;99607.03;4977825;28;45647;-80
2021/08/07 06:44:27;;;;;;;;;4.00;3.75;;;;;18.48;60.76;99599.09;4976226;28;46234;-81
2021/08/07 06:46:53;;;;;;;;;4.00;3.00;;;;;18.49;60.34;99601.56;4977698;28;45788;-80
2021/08/07 06:49:18;;;;;;;;;2.00;2.00;;;;;18.49;60.84;99600.75;4976560;28;45657;-80
2021/08/07 06:51:43;;;;;;;;;2.00;2.00;;;;;18.45;60.83;99595.81;4975858;28;46873;-79
2021/08/07 06:54:09;;;;;;;;;5.00;3.00;;;;;18.45;61.04;99598.47;4974383;28;46098;-80
2021/08/07 06:56:34;;;;;;;;;2.00;2.00;;;;;18.48;60.65;99596.44;4976309;28;45861;-81
2021/08/07 07:02:22;;;;;;;;;4.50;3.75;;;;;18.34;61.23;99575.06;4975356;28;45866;-81
2021/08/07 07:04:49;;;;;;;;;2.00;2.00;;;;;18.51;60.76;99602.22;4975103;28;45820;-80
2021/08/07 07:07:14;;;;;;;;;3.75;2.75;;;;;18.39;60.96;99570.03;4975609;28;45869;-81
2021/08/07 07:09:40;;;;;;;;;2.00;2.00;;;;;18.46;60.99;99586.81;4975343;28;46340;-80
2021/08/07 07:12:06;;;;;;;;;3.50;2.50;;;;;18.57;61.23;99601.47;4974909;28;45506;-82
2021/08/07 07:14:31;;;;;;;;;1.50;1.50;;;;;18.61;61.16;99602.78;4974880;28;45786;-81
2021/08/07 07:16:57;;;;;;;;;4.00;3.00;;;;;18.61;61.17;99601.94;4975323;28;45659;-80
2021/08/07 07:19:25;;;;;;;;;1.00;1.00;;;;;18.69;61.42;99604.50;4974868;28;46727;-81
2021/08/07 07:21:51;;;;;;;;;2.25;2.00;;;;;18.73;61.30;99601.28;4974840;28;45902;-80
2021/08/07 07:24:17;;;;;;;;;5.25;4.25;;;;;18.72;61.28;99591.69;4974325;28;46063;-81
2021/08/07 07:26:42;;;;;;;;;5.50;2.75;;;;;18.83;61.21;99593.88;4974089;28;45857;-81
2021/08/07 07:32:29;;;;;;;;;2.50;2.00;;;;;18.90;61.34;99595.75;4975086;28;45682;-81
2021/08/07 07:34:55;;;;;;;;;1.50;1.50;;;;;18.97;60.95;99588.69;4978928;28;45735;-82
2021/08/07 07:37:20;;;;;;;;;4.50;1.25;;;;;19.06;60.83;99595.50;4979587;28;45594;-81
2021/08/07 07:39:45;;;;;;;;;0.75;0.75;;;;;19.06;61.24;99583.06;4977671;28;46495;-82
2021/08/07 07:42:11;;;;;;;;;3.25;1.75;;;;;19.13;61.35;99581.31;4975408;28;45898;-80
2021/08/07 07:44:36;;;;;;;;;1.75;0.50;;;;;19.11;60.86;99571.91;4974439;28;45626;-80
2021/08/07 07:47:02;;;;;;;;;2.25;1.75;;;;;19.26;61.41;99592.06;4974855;28;45621;-81
2021/08/07 07:49:28;;;;;;;;;2.00;1.75;;;;;19.18;61.32;99560.31;4974504;28;45661;-80
2021/08/07 07:51:53;;;;;;;;;2.25;0.50;;;;;19.25;61.23;99560.38;4974497;28;46392;-79
2021/08/07 07:54:18;;;;;;;;;2.00;1.00;;;;;19.28;61.07;99555.50;4974473;28;45650;-82
2021/08/07 07:56:44;;;;;;;;;2.75;2.00;;;;;19.43;60.81;99579.34;4974809;28;45757;-80
2021/08/07 08:02:31;;;;;;;;;2.00;2.00;;;;;19.49;61.12;99554.69;4974120;28;45676;-81
2021/08/07 08:04:56;;;;;;;;;2.25;2.25;;;;;19.60;61.03;99554.16;4974073;28;45590;-79
2021/08/07 08:07:22;;;;;;;;;1.75;1.00;;;;;19.69;60.96;99563.66;4974590;28;45527;-81
2021/08/07 08:09:47;;;;;;;;;1.00;1.00;;;;;19.66;60.49;99536.63;4974338;28;46448;-80
2021/08/07 08:12:13;;;;;;;;;2.00;1.00;;;;;19.76;60.29;99541.63;4973997;28;46012;-80
2021/08/07 08:17:59;;;;;;;;;2.25;2.00;;;;;19.95;60.13;99544.38;4974027;28;45683;-79
2021/08/07 08:20:25;;;;;;;;;2.00;1.50;;;;;19.99;60.07;99545.63;4973776;28;46423;-79
2021/08/07 08:22:51;;;;;;;;;15.25;14.50;;;;;20.06;60.26;99553.66;4973756;28;46447;-79
2021/08/07 08:25:17;;;;;;;;;4.00;2.75;;;;;19.99;59.58;99520.88;4974021;28;45639;-79
2021/08/07 08:27:43;;;;;;;;;1.00;1.00;;;;;20.10;59.44;99530.97;4974908;28;45790;-79
2021/08/07 08:30:10;;;;;;;;;0.75;0.75;;;;;20.20;59.49;99525.28;4974539;28;45547;-79
2021/08/07 08:32:36;;;;;;;;;4.25;4.25;;;;;20.28;59.24;99539.25;4977566;28;46241;-81
2021/08/07 08:35:01;;;;;;;;;3.00;2.00;;;;;20.32;59.46;99542.34;4982241;28;45608;-80
2021/08/07 08:37:27;;;;;;;;;1.00;1.00;;;;;20.36;59.11;99536.44;4981727;28;45762;-80
2021/08/07 08:39:52;;;;;;;;;2.25;1.00;;;;;20.40;59.11;99532.38;4982135;28;45760;-81
2021/08/07 08:42:20;;;;;;;;;1.25;1.00;;;;;20.43;58.90;99528.50;4981967;28;46223;-81
2021/08/07 08:48:08;;;;;;;;;2.50;1.00;;;;;20.44;59.11;99511.50;4973672;28;45564;-80
2021/08/07 08:50:33;;;;;;;;;0.00;0.00;;;;;20.35;59.00;99497.53;4973693;28;45632;-80
2021/08/07 08:52:59;;;;;;;;;1.00;1.00;;;;;20.36;58.81;99498.38;4973596;28;46197;-82
2021/08/07 08:55:25;;;;;;;;;1.00;1.00;;;;;20.29;58.51;99498.34;4974062;28;45697;-83
2021/08/07 08:57:50;;;;;;;;;2.00;2.00;;;;;20.47;58.72;99519.06;4974069;28;45527;-80
2021/08/07 09:00:16;;;;;;;;;1.00;1.00;;;;;20.35;59.04;99497.53;4973641;28;45688;-80
2021/08/07 09:02:43;;;;;;;;;1.00;1.00;;;;;20.47;58.62;99511.09;4973725;28;45630;-81
2021/08/07 09:05:11;;;;;;;;;6.50;6.00;;;;;20.40;59.02;99510.28;4973641;28;45582;-80
2021/08/07 09:07:36;;;;;;;;;2.75;1.25;;;;;20.47;58.91;99517.25;4974111;28;45691;-81
2021/08/07 09:10:03;;;;;;;;;1.25;1.00;;;;;20.47;59.34;99516.41;4973481;28;46738;-80
2021/08/07 09:19:11;;;;;;;;;2.00;1.00;;;;;20.39;60.32;99516.59;4973531;28;45797;-80
2021/08/07 09:21:37;;;;;;;;;2.00;1.00;;;;;20.34;60.59;99500.44;4973487;28;45590;-82
2021/08/07 09:24:07;;;;;;;;;2.00;2.00;;;;;20.28;60.88;99498.53;4972963;28;45564;-81
2021/08/07 09:26:32;;;;;;;;;1.50;1.25;;;;;20.25;60.73;99496.25;4972887;28;45670;-81
2021/08/07 09:28:58;;;;;;;;;1.75;1.00;;;;;20.28;61.21;99496.69;4973165;28;45781;-80
2021/08/07 09:31:25;;;;;;;;;1.00;1.00;;;;;20.30;61.39;99499.13;4972827;28;45673;-79
2021/08/07 09:34:16;;;;;;;;;2.00;2.00;;;;;20.31;61.30;99498.09;4972451;28;46896;-80
2021/08/07 09:36:56;;;;;;;;;1.75;1.00;;;;;20.13;61.20;99472.06;4973220;28;45584;-81
2021/08/07 09:39:36;;;;;;;;;1.00;1.00;;;;;20.31;61.37;99506.94;4972857;28;45619;-79
2021/08/07 09:42:02;;;;;;;;;1.00;1.00;;;;;20.32;61.68;99494.47;4972695;28;46327;-81
2021/08/07 09:44:28;;;;;;;;;1.00;0.00;;;;;20.30;61.53;99493.81;4972711;28;46089;-80
2021/08/07 09:47:10;;;;;;;;;2.00;2.00;;;;;20.28;61.66;99496.69;4973228;28;45768;-80
2021/08/07 09:49:37;;;;;;;;;1.50;1.00;;;;;20.26;61.79;99498.72;4973863;28;45778;-79
2021/08/07 09:52:03;;;;;;;;;2.00;2.00;;;;;20.11;62.29;99466.13;4976351;28;45768;-79
2021/08/07 09:54:40;;;;;;;;;2.75;2.00;;;;;20.08;62.09;99459.34;4976184;28;46530;-82
2021/08/07 09:57:09;;;;;;;;;3.00;2.00;;;;;20.23;62.20;99496.47;4975990;28;45843;-80
2021/08/07 09:59:45;;;;;;;;;2.25;1.00;;;;;20.22;62.17;99496.66;4976130;28;45641;-78
2021/08/07 10:02:26;;;;;;;;;0.50;0.50;;;;;20.25;62.06;99496.25;4976017;28;46452;-79
2021/08/07 10:04:52;;;;;;;;;1.50;0.50;;;;;20.23;62.23;99493.81;4975836;28;45852;-81
2021/08/07 10:07:17;;;;;;;;;1.00;0.50;;;;;20.21;61.94;99489.69;4976385;28;45596;-79
2021/08/07 10:09:42;;;;;;;;;1.00;0.50;;;;;20.19;62.40;99489.09;4976153;28;45558;-81
2021/08/07 10:12:11;;;;;;;;;2.25;1.25;;;;;20.10;62.02;99473.28;4975904;28;46863;-80
2021/08/07 10:14:38;;;;;;;;;2.00;1.75;;;;;20.19;61.78;99495.19;4976146;28;46146;-80
2021/08/07 10:17:06;;;;;;;;;1.50;1.25;;;;;20.09;62.12;99479.59;4976008;28;45896;-80
2021/08/07 10:19:33;;;;;;;;;1.00;1.00;;;;;20.16;62.37;99492.94;4975920;28;45571;-81
2021/08/07 10:22:00;;;;;;;;;2.50;1.50;;;;;20.13;62.12;99477.41;4976150;28;46389;-82
2021/08/07 10:24:27;;;;;;;;;1.00;1.00;;;;;20.11;62.54;99484.75;4978151;28;47401;-80
2021/08/07 10:26:53;;;;;;;;;1.50;1.00;;;;;20.05;62.84;99480.22;4979907;28;45642;-80
2021/08/07 10:29:28;;;;;;;;;1.00;1.00;;;;;20.00;62.70;99478.16;4980938;28;45862;-81
2021/08/07 10:31:55;;;;;;;;;1.50;1.00;;;;;20.04;62.58;99487.38;4979796;28;45738;-81
2021/08/07 10:34:22;;;;;;;;;1.50;1.00;;;;;20.05;62.61;99469.56;4979053;28;45826;-82
2021/08/07 10:36:48;;;;;;;;;0.75;0.75;;;;;20.06;62.69;99460.59;4978351;28;45603;-81
2021/08/07 10:39:14;;;;;;;;;2.00;2.00;;;;;20.08;62.94;99458.56;4981751;28;45888;-82
2021/08/07 10:41:40;;;;;;;;;2.00;1.00;;;;;20.09;63.11;99458.34;4998421;28;48516;-80
2021/08/07 10:44:06;;;;;;;;;1.00;1.00;;;;;19.95;62.80;99424.75;4983645;28;45782;-81
2021/08/07 10:46:32;;;;;;;;;1.00;1.00;;;;;20.10;63.04;99459.97;4983791;28;45631;-81
2021/08/07 10:48:57;;;;;;;;;0.50;0.50;;;;;19.90;62.91;99421.03;4983245;28;45658;-80
2021/08/07 10:51:23;;;;;;;;;1.00;1.00;;;;;20.10;63.13;99451.19;4977278;28;45618;-81
2021/08/07 10:53:52;;;;;;;;;2.00;1.00;;;;;20.11;62.72;99452.81;4975712;28;45651;-85
2021/08/07 10:56:26;;;;;;;;;0.00;0.00;;;;;20.15;63.42;99453.25;4975673;28;45661;-81
2021/08/07 10:58:52;;;;;;;;;0.25;0.25;;;;;20.15;63.21;99453.25;4975774;28;45730;-81
2021/08/07 11:03:51;;;;;;;;;1.00;1.00;;;;;20.17;63.19;99448.56;4974882;28;46184;-80
2021/08/07 11:06:18;;;;;;;;;1.00;1.00;;;;;20.20;63.51;99442.81;4975021;28;45766;-82
2021/08/07 11:08:45;;;;;;;;;0.50;0.00;;;;;20.20;63.26;99430.34;4975329;28;45667;-81
2021/08/07 11:11:40;;;;;;;;;1.00;1.00;;;;;20.30;63.64;99441.41;4974789;28;47557;-82
2021/08/07 11:14:20;;;;;;;;;1.00;0.75;;;;;20.34;63.60;99440.06;4895936;29;45854;-80
2021/08/07 11:17:06;;;;;;;;;1.00;1.00;;;;;20.39;63.54;99445.59;4895993;29;45688;-81
2021/08/07 11:19:48;;;;;;;;;0.50;0.00;;;;;20.45;63.17;99441.31;4895630;29;45668;-80
2021/08/07 11:22:14;;;;;;;;;0.25;0.25;;;;;20.47;62.88;99431.25;4895616;29;45898;-81
2021/08/07 11:25:00;;;;;;;;;0.00;0.00;;;;;20.52;62.92;99432.31;4895646;29;45754;-83
2021/08/07 11:27:48;;;;;;;;;1.00;1.00;;;;;20.57;62.68;99418.38;4895439;29;45975;-82
2021/08/07 11:30:32;;;;;;;;;0.50;0.50;;;;;20.62;62.92;99413.28;4895566;28;45911;-83
2021/08/07 11:35:38;;;;;;;;;1.00;0.00;;;;;20.74;62.38;99390.34;4895363;29;45831;-80
2021/08/07 11:38:10;;;;;;;;;0.00;0.00;;;;;20.80;62.48;99389.53;4895566;29;45807;-80
2021/08/07 11:40:40;;;;;;;;;2.00;1.00;;;;;20.79;61.99;99382.56;4895502;29;45898;-81
2021/08/07 11:43:13;;;;;;;;;1.00;0.00;;;;;20.90;62.28;99397.94;4894962;29;45779;-80
2021/08/07 11:45:39;;;;;;;;;0.75;0.75;;;;;20.83;62.14;99389.16;4895454;29;46040;-80
2021/08/07 11:48:05;;;;;;;;;2.00;2.00;;;;;21.02;62.26;99419.44;4895679;29;46166;-80
2021/08/07 11:50:31;;;;;;;;;1.00;0.00;;;;;21.05;61.71;99413.72;4935258;28;45607;-80
2021/08/07 11:52:57;;;;;;;;;1.00;0.00;;;;;21.11;61.45;99430.69;4975456;28;45851;-80
2021/08/07 11:55:22;;;;;;;;;2.25;1.00;;;;;21.09;61.11;99427.44;4975240;28;46169;-81
2021/08/07 11:58:03;;;;;;;;;1.00;1.00;;;;;21.15;60.57;99430.13;4975277;28;45616;-81
2021/08/07 12:00:28;;;;;;;;;0.00;0.00;;;;;21.16;60.21;99425.63;4974704;28;45675;-83
2021/08/07 12:02:58;;;;;;;;;0.75;0.00;;;;;21.08;59.19;99407.97;4974355;28;45770;-80
2021/08/07 12:05:24;;;;;;;;;0.00;0.00;;;;;21.15;59.00;99413.34;4974571;28;45795;-82
2021/08/07 12:08:13;;;;;;;;;2.00;1.00;;;;;21.08;59.23;99404.50;4974603;28;45665;-82
2021/08/07 12:10:53;;;;;;;;;0.00;0.00;;;;;21.15;58.85;99410.66;4895308;29;45704;-83
2021/08/07 12:16:37;;;;;;;;;2.00;0.00;;;;;21.19;58.76;99406.56;4894861;29;45841;-81
2021/08/07 12:19:14;;;;;;;;;0.75;0.00;;;;;21.14;58.17;99393.88;4878954;29;45738;-82
2021/08/07 12:21:41;;;;;;;;;0.00;0.00;;;;;21.23;58.20;99405.13;4895127;29;45729;-81
2021/08/07 12:24:07;;;;;;;;;1.75;0.00;;;;;21.23;58.31;99402.44;4894756;29;46612;-82
2021/08/07 12:26:59;;;;;;;;;1.00;1.00;;;;;21.27;58.48;99404.47;4894915;29;47063;-81
2021/08/07 12:32:45;;;;;;;;;0.75;0.75;;;;;21.28;58.41;99378.66;4896886;29;45966;-80
2021/08/07 12:35:31;;;;;;;;;1.00;1.00;;;;;21.29;58.83;99369.66;4897488;29;45866;-80
2021/08/07 12:37:57;;;;;;;;;0.75;0.75;;;;;21.32;59.14;99377.25;4896728;29;45737;-81
2021/08/07 12:40:22;;;;;;;;;1.00;1.00;;;;;21.47;59.00;99391.13;4895555;29;45880;-81
2021/08/07 12:42:49;;;;;;;;;1.50;1.00;;;;;21.51;59.06;99388.88;4901365;29;45741;-81
2021/08/07 12:48:56;;;;;;;;;1.00;1.00;;;;;21.61;58.69;99386.56;4972278;28;45961;-79
2021/08/07 12:51:27;;;;;;;;;1.00;1.00;;;;;21.63;58.88;99385.34;4981910;28;45622;-80